DK-0012 weather

Aarhus Universitetshospital Helipad
Ã…rhus, Central Jutland, Denmark

Public forecast

Using degrees Celsius for public forecast. Weather courtesy of forecast.io.

Closest aviation weather report (METAR) to Aarhus Universitetshospital Helipad

Closest report is Aarhus Airport, 16.1 nm (29.9 km) ENE. Retrieved 2019/10/19 11:20 UTC (27 minutes ago):

EKAH 191120Z AUTO 20006KT 150V250 9999NDV BKN014/// 12/09 Q1004

Closest aviation forecast (TAF) to Aarhus Universitetshospital Helipad

Closest forecast is Aarhus Airport, 16.1 nm (29.9 km) ENE. Retrieved 2019/10/19 06:31 UTC (5 hours ago):

TAF EKAH 190506Z 1906/2006 21015KT 9999 BKN020 TEMPO 1906/1916 SCT020CB BECMG 1914/1916 16005KT TEMPO 1916/1922 2000 SHRA BR BKN008 BKN020CB TEMPO 1922/2006 2000 BR BKN010 SCT020CB